Time;durP1;ratioP1;P1;durP2;ratioP2;P2;SDS_P1;SDS_P2;PMS_P1;PMS_P2;Temp;Humidity;BMP_temperature;BMP_pressure;BME280_temperature;BME280_humidity;BME280_pressure;Samples;Min_cycle;Max_cycle;Signal;HPM_P1;HPM_P2
2022/03/08 00:00:13;;;;;;;26.97;14.90;;;1.70;53.90;;;;;;5093608;28;20443;-58
2022/03/08 00:02:40;;;;;;;19.30;14.17;;;1.60;53.60;;;;;;5093949;28;20468;-58
2022/03/08 00:05:09;;;;;;;17.10;15.30;;;1.60;54.00;;;;;;5093525;28;21001;-58
2022/03/08 00:07:36;;;;;;;20.53;14.27;;;1.60;54.00;;;;;;5093988;28;20490;-58
2022/03/08 00:10:06;;;;;;;27.10;15.63;;;1.60;54.50;;;;;;5093833;28;20452;-58
2022/03/08 00:12:33;;;;;;;16.60;14.20;;;1.50;54.20;;;;;;5094634;28;20540;-58
2022/03/08 00:15:01;;;;;;;19.57;14.40;;;1.40;54.70;;;;;;5093778;28;21014;-58
2022/03/08 00:17:28;;;;;;;17.03;13.80;;;1.30;54.70;;;;;;5093304;28;20822;-58
2022/03/08 00:19:55;;;;;;;16.63;13.10;;;1.20;55.10;;;;;;5093706;28;20522;-58
2022/03/08 00:22:22;;;;;;;21.07;14.20;;;1.10;55.00;;;;;;5094437;28;20473;-58
2022/03/08 00:24:49;;;;;;;17.60;14.30;;;1.10;55.10;;;;;;5093770;28;20473;-58
2022/03/08 00:27:18;;;;;;;18.17;12.53;;;1.00;55.20;;;;;;5093243;28;20483;-58
2022/03/08 00:29:45;;;;;;;17.50;13.03;;;0.90;55.30;;;;;;5093305;28;20523;-57
2022/03/08 00:32:12;;;;;;;21.27;12.60;;;0.90;55.30;;;;;;5093292;28;20454;-58
2022/03/08 00:34:39;;;;;;;16.67;13.23;;;0.80;55.50;;;;;;5093555;28;20550;-58
2022/03/08 00:37:06;;;;;;;20.50;14.43;;;0.90;55.60;;;;;;5094001;28;20465;-58
2022/03/08 00:39:34;;;;;;;17.10;13.40;;;0.90;55.70;;;;;;5093512;28;20458;-58
2022/03/08 00:42:01;;;;;;;19.73;13.43;;;0.90;55.70;;;;;;5097604;28;20451;-58
2022/03/08 00:44:29;;;;;;;17.70;12.77;;;;;;;;;;5097463;28;20534;-58
2022/03/08 00:46:57;;;;;;;17.07;13.20;;;0.80;55.50;;;;;;5097282;28;20467;-58
2022/03/08 00:49:24;;;;;;;18.30;11.90;;;0.80;55.80;;;;;;5097351;28;20600;-58
2022/03/08 00:51:51;;;;;;;18.80;14.43;;;0.70;55.70;;;;;;5097344;28;20480;-58
2022/03/08 00:54:18;;;;;;;15.17;12.67;;;0.70;55.80;;;;;;5097108;28;20450;-58
2022/03/08 00:56:45;;;;;;;18.83;12.27;;;0.80;55.70;;;;;;5098056;28;20554;-59
2022/03/08 00:59:13;;;;;;;15.80;12.63;;;0.70;55.50;;;;;;5096946;28;20439;-58
2022/03/08 01:01:41;;;;;;;18.10;12.50;;;0.80;55.50;;;;;;5096808;28;20454;-58
2022/03/08 01:04:08;;;;;;;17.37;12.57;;;0.80;55.30;;;;;;5096829;28;20447;-58
2022/03/08 01:06:35;;;;;;;14.40;12.60;;;0.90;55.70;;;;;;5096967;28;20478;-58
2022/03/08 01:09:03;;;;;;;15.67;12.13;;;0.90;55.70;;;;;;5096674;28;20486;-58
2022/03/08 01:11:30;;;;;;;18.03;12.40;;;0.90;55.80;;;;;;5097048;28;20551;-58
2022/03/08 01:13:57;;;;;;;16.63;12.40;;;0.90;55.50;;;;;;5096646;28;20979;-58
2022/03/08 01:16:24;;;;;;;17.30;13.10;;;1.00;55.50;;;;;;5096486;28;20467;-58
2022/03/08 01:18:53;;;;;;;15.50;13.20;;;0.90;55.80;;;;;;5096788;28;20443;-58
2022/03/08 01:21:20;;;;;;;15.30;13.47;;;0.90;55.40;;;;;;5096707;28;20443;-58
2022/03/08 01:23:47;;;;;;;15.93;13.00;;;1.00;55.30;;;;;;5096466;28;20450;-58
2022/03/08 01:26:14;;;;;;;18.30;14.20;;;1.00;56.00;;;;;;5096794;28;20474;-58
2022/03/08 01:28:42;;;;;;;21.20;14.00;;;1.00;55.80;;;;;;5095994;28;20985;-58
2022/03/08 01:31:09;;;;;;;14.83;13.40;;;1.00;55.50;;;;;;5096439;28;20496;-58
2022/03/08 01:33:36;;;;;;;22.40;14.00;;;1.00;55.80;;;;;;5096411;28;20808;-58
2022/03/08 01:36:06;;;;;;;14.00;12.00;;;0.90;55.30;;;;;;5096839;28;20538;-58
2022/03/08 01:38:33;;;;;;;20.53;13.80;;;0.80;55.70;;;;;;5096073;28;20450;-58
2022/03/08 01:41:00;;;;;;;18.60;13.27;;;0.70;56.00;;;;;;5096080;28;21028;-58
2022/03/08 01:43:27;;;;;;;17.23;12.27;;;0.70;56.10;;;;;;5096351;28;20451;-58
2022/03/08 01:45:55;;;;;;;17.03;13.87;;;0.60;56.40;;;;;;5096297;28;20465;-58
2022/03/08 01:48:22;;;;;;;17.03;13.33;;;0.60;56.40;;;;;;5095813;28;20487;-58
2022/03/08 01:50:49;;;;;;;16.80;12.90;;;0.50;56.60;;;;;;5096239;28;20889;-58
2022/03/08 01:53:18;;;;;;;17.67;12.47;;;0.60;57.20;;;;;;5095364;28;20444;-58
2022/03/08 01:55:45;;;;;;;29.90;12.00;;;0.70;56.90;;;;;;5095812;28;20456;-58
2022/03/08 01:58:12;;;;;;;14.40;12.53;;;0.70;56.80;;;;;;5095719;28;20469;-58
2022/03/08 02:00:39;;;;;;;18.00;13.70;;;0.70;56.80;;;;;;5095671;28;21060;-58
2022/03/08 02:03:07;;;;;;;16.63;12.03;;;0.80;57.30;;;;;;5095908;28;20466;-58
2022/03/08 02:05:34;;;;;;;14.83;11.83;;;0.70;57.60;;;;;;5095914;28;20490;-58
2022/03/08 02:08:01;;;;;;;15.00;13.50;;;0.70;56.90;;;;;;5095437;28;21056;-58
2022/03/08 02:10:30;;;;;;;15.60;12.33;;;0.70;57.40;;;;;;5095474;28;20883;-58
2022/03/08 02:12:57;;;;;;;15.50;12.73;;;0.60;57.80;;;;;;5095799;28;20447;-58
2022/03/08 02:15:26;;;;;;;14.23;12.43;;;0.60;57.60;;;;;;5095406;28;20985;-58
2022/03/08 02:17:55;;;;;;;16.47;12.00;;;0.50;58.30;;;;;;5095592;28;20550;-58
2022/03/08 02:20:23;;;;;;;18.60;12.83;;;0.60;58.40;;;;;;5095625;28;20453;-58
2022/03/08 02:22:52;;;;;;;16.93;12.90;;;0.60;58.40;;;;;;5095542;28;20547;-58
2022/03/08 02:25:21;;;;;;;13.40;12.07;;;0.60;58.10;;;;;;5095578;28;20546;-58
2022/03/08 02:27:51;;;;;;;14.90;11.80;;;0.60;58.30;;;;;;5093814;28;20494;-58
2022/03/08 02:30:19;;;;;;;13.93;11.40;;;0.50;58.40;;;;;;5095459;28;21001;-58
2022/03/08 02:32:47;;;;;;;16.37;12.90;;;0.50;58.80;;;;;;5095367;28;20923;-58
2022/03/08 02:35:16;;;;;;;12.83;11.07;;;0.30;58.40;;;;;;5095073;28;20454;-58
2022/03/08 02:37:47;;;;;;;16.93;12.37;;;0.40;59.00;;;;;;5094890;28;20469;-58
2022/03/08 02:40:19;;;;;;;13.60;11.87;;;0.40;59.00;;;;;;5094959;28;20481;-58
2022/03/08 02:42:46;;;;;;;13.03;10.40;;;0.40;59.40;;;;;;5094975;28;20461;-58
2022/03/08 02:45:15;;;;;;;15.87;11.60;;;0.30;59.00;;;;;;5095156;28;20444;-58
2022/03/08 02:47:42;;;;;;;15.57;12.67;;;0.20;58.90;;;;;;5094927;28;20526;-58
2022/03/08 02:50:11;;;;;;;18.37;12.77;;;0.20;59.30;;;;;;5094740;28;20448;-58
2022/03/08 02:52:39;;;;;;;13.97;11.40;;;0.30;59.30;;;;;;5094704;28;20455;-58
2022/03/08 02:55:08;;;;;;;13.73;11.43;;;0.30;59.40;;;;;;5095102;28;20463;-58
2022/03/08 02:57:36;;;;;;;11.17;10.10;;;0.20;59.70;;;;;;5094868;28;20505;-58
2022/03/08 03:00:07;;;;;;;18.70;12.60;;;0.10;59.20;;;;;;5094827;28;20449;-58
2022/03/08 03:02:34;;;;;;;14.60;12.13;;;0.20;59.80;;;;;;5094637;28;20411;-58
2022/03/08 03:05:01;;;;;;;14.93;12.27;;;0.30;60.00;;;;;;5094060;28;20930;-58
2022/03/08 03:07:29;;;;;;;16.37;12.00;;;0.20;60.30;;;;;;5094582;28;20518;-58
2022/03/08 03:09:56;;;;;;;14.70;11.60;;;0.20;60.10;;;;;;5094605;28;20483;-58
2022/03/08 03:12:23;;;;;;;18.10;11.80;;;0.20;60.50;;;;;;5094316;28;21032;-58
2022/03/08 03:14:51;;;;;;;13.90;12.00;;;0.20;60.10;;;;;;5094269;28;20451;-58
2022/03/08 03:17:18;;;;;;;14.23;12.60;;;0.20;60.50;;;;;;5094486;28;20467;-58
2022/03/08 03:19:46;;;;;;;13.27;11.27;;;0.10;60.30;;;;;;5094517;28;20448;-58
2022/03/08 03:22:13;;;;;;;15.13;11.27;;;0.10;61.20;;;;;;5094420;28;20453;-58
2022/03/08 03:24:40;;;;;;;16.77;10.90;;;0.10;61.10;;;;;;5094129;28;20455;-58
2022/03/08 03:27:07;;;;;;;15.83;10.60;;;0.20;60.90;;;;;;5094030;28;20478;-58
2022/03/08 03:29:34;;;;;;;16.70;11.60;;;0.10;60.80;;;;;;5093832;28;20491;-58
2022/03/08 03:32:03;;;;;;;14.37;11.13;;;0.10;60.90;;;;;;5094345;28;20479;-58
2022/03/08 03:34:30;;;;;;;15.43;11.37;;;0.00;60.30;;;;;;5094261;28;20473;-58
2022/03/08 03:36:57;;;;;;;14.43;11.83;;;0.00;67.00;;;;;;5094179;28;20892;-58
2022/03/08 03:39:24;;;;;;;13.60;10.60;;;-0.10;71.90;;;;;;5093879;28;20439;-58
2022/03/08 03:41:52;;;;;;;14.97;11.63;;;-0.10;62.20;;;;;;5094180;28;20451;-58
2022/03/08 03:44:19;;;;;;;12.93;11.07;;;-0.10;72.00;;;;;;5093805;28;20534;-58
2022/03/08 03:46:46;;;;;;;15.00;12.00;;;-0.10;67.90;;;;;;5093673;28;20499;-58
2022/03/08 03:49:15;;;;;;;15.17;11.80;;;0.00;67.70;;;;;;5093948;28;21019;-58
2022/03/08 03:51:43;;;;;;;14.90;10.90;;;-0.10;62.40;;;;;;5093961;28;20460;-58
2022/03/08 03:54:10;;;;;;;18.77;12.47;;;-0.10;62.20;;;;;;5093528;28;20542;-58
2022/03/08 03:56:37;;;;;;;15.03;11.20;;;-0.20;62.60;;;;;;5093592;28;20471;-58
2022/03/08 03:59:05;;;;;;;14.50;11.83;;;0.00;61.80;;;;;;5093939;28;20471;-58
2022/03/08 04:01:32;;;;;;;16.43;11.50;;;-0.10;61.70;;;;;;5093842;28;20451;-58
2022/03/08 04:03:59;;;;;;;14.77;12.30;;;-0.10;61.90;;;;;;5093530;28;20458;-59
2022/03/08 04:06:28;;;;;;;14.37;11.33;;;-0.10;62.50;;;;;;5093780;28;20576;-59
2022/03/08 04:08:55;;;;;;;12.10;10.87;;;-0.10;62.00;;;;;;5093726;28;20533;-58
2022/03/08 04:11:22;;;;;;;14.00;11.00;;;0.00;61.70;;;;;;5093769;28;20458;-59
2022/03/08 04:13:49;;;;;;;12.07;9.80;;;-0.10;60.40;;;;;;5093773;28;20432;-59
2022/03/08 04:16:16;;;;;;;16.77;12.43;;;-0.10;60.50;;;;;;5095581;28;21144;-58
2022/03/08 04:18:44;;;;;;;15.40;11.23;;;-0.10;60.10;;;;;;5098093;28;20890;-58
2022/03/08 04:21:11;;;;;;;14.13;11.00;;;-0.10;59.00;;;;;;5097881;28;20479;-58
2022/03/08 04:23:39;;;;;;;11.57;10.00;;;0.00;59.80;;;;;;5097851;28;20859;-59
2022/03/08 04:26:06;;;;;;;12.93;11.53;;;0.00;60.20;;;;;;5098089;28;20461;-59
2022/03/08 04:28:34;;;;;;;17.00;12.53;;;0.10;68.90;;;;;;5097215;28;20487;-58
2022/03/08 04:31:01;;;;;;;15.77;11.83;;;0.00;66.50;;;;;;5097407;28;20538;-58
2022/03/08 04:33:28;;;;;;;17.50;12.60;;;0.00;64.80;;;;;;5098260;28;20435;-58
2022/03/08 04:35:55;;;;;;;19.67;11.40;;;0.10;66.50;;;;;;5097558;28;20562;-58
2022/03/08 04:38:22;;;;;;;13.77;11.53;;;0.10;68.70;;;;;;5097592;28;20530;-57
2022/03/08 04:40:51;;;;;;;15.93;11.70;;;0.10;67.60;;;;;;5097538;28;20539;-59
2022/03/08 04:43:18;;;;;;;15.30;12.30;;;0.00;63.60;;;;;;5097201;28;20447;-58
2022/03/08 04:45:45;;;;;;;13.53;10.37;;;0.00;64.20;;;;;;5097212;28;20479;-58
2022/03/08 04:48:12;;;;;;;14.63;11.97;;;0.00;63.10;;;;;;5096908;28;20477;-58
2022/03/08 04:50:40;;;;;;;13.23;10.90;;;0.00;62.90;;;;;;5097026;28;20447;-58
2022/03/08 04:53:07;;;;;;;12.70;11.30;;;0.00;62.30;;;;;;5097372;28;20487;-58
2022/03/08 04:55:34;;;;;;;11.53;9.60;;;-0.10;64.80;;;;;;5097332;28;20534;-58
2022/03/08 04:58:03;;;;;;;13.20;10.77;;;-0.20;62.30;;;;;;5097085;28;20489;-58
2022/03/08 05:00:31;;;;;;;13.60;12.00;;;-0.10;63.00;;;;;;5096815;28;20933;-58
2022/03/08 05:02:58;;;;;;;16.70;11.30;;;-0.10;63.80;;;;;;5097103;28;20443;-58
2022/03/08 05:05:25;;;;;;;21.50;12.53;;;0.00;64.30;;;;;;5097085;28;20498;-58
2022/03/08 05:07:52;;;;;;;14.53;10.70;;;-0.10;63.50;;;;;;5096651;28;20470;-58
2022/03/08 05:10:19;;;;;;;17.67;12.73;;;-0.20;64.00;;;;;;5096585;28;20514;-58
2022/03/08 05:12:47;;;;;;;12.00;10.80;;;;;;;;;;5096958;28;20432;-58
2022/03/08 05:15:16;;;;;;;14.07;10.80;;;-0.30;95.00;;;;;;5096597;28;20926;-59
2022/03/08 05:17:43;;;;;;;11.60;10.40;;;-0.30;90.60;;;;;;5096806;28;20459;-58
2022/03/08 05:20:11;;;;;;;14.90;10.77;;;-0.30;90.30;;;;;;5096476;28;20440;-58
2022/03/08 05:22:39;;;;;;;15.47;11.27;;;-0.30;78.50;;;;;;5096313;28;20538;-58
2022/03/08 05:25:07;;;;;;;13.07;10.00;;;-0.30;66.00;;;;;;5096440;28;20452;-58
2022/03/08 05:27:34;;;;;;;12.17;9.87;;;-0.40;64.30;;;;;;5095790;28;20570;-58
2022/03/08 05:30:01;;;;;;;11.10;9.90;;;-0.30;73.30;;;;;;5096101;28;20473;-58
2022/03/08 05:32:30;;;;;;;16.50;10.63;;;-0.30;71.00;;;;;;5096428;28;20465;-58
2022/03/08 05:34:57;;;;;;;19.00;11.23;;;-0.40;72.40;;;;;;5096195;28;20454;-58
2022/03/08 05:37:25;;;;;;;14.43;10.17;;;-0.20;78.20;;;;;;5096107;28;20547;-58
2022/03/08 05:39:52;;;;;;;16.77;11.30;;;-0.20;79.40;;;;;;5095975;28;20948;-59
2022/03/08 05:42:19;;;;;;;13.83;11.20;;;-0.20;75.70;;;;;;5096218;28;20527;-58
2022/03/08 05:44:46;;;;;;;13.13;10.13;;;-0.20;77.50;;;;;;5097059;28;20448;-58
2022/03/08 05:47:13;;;;;;;11.90;10.60;;;-0.20;77.80;;;;;;5095801;28;20525;-58
2022/03/08 05:49:42;;;;;;;14.83;9.70;;;-0.20;77.70;;;;;;5096841;28;20482;-58
2022/03/08 05:52:09;;;;;;;12.57;9.63;;;-0.30;77.80;;;;;;5095852;28;20451;-58
2022/03/08 05:54:36;;;;;;;12.37;10.20;;;-0.20;66.30;;;;;;5095740;28;20459;-58
2022/03/08 05:57:04;;;;;;;13.53;10.73;;;-0.30;65.00;;;;;;5095571;28;20467;-58
2022/03/08 05:59:31;;;;;;;16.20;10.67;;;-0.40;65.10;;;;;;5095504;28;20479;-58
2022/03/08 06:01:59;;;;;;;14.80;10.57;;;-0.40;64.70;;;;;;5096050;28;20527;-58
2022/03/08 06:04:26;;;;;;;11.47;9.23;;;-0.30;65.30;;;;;;5096633;28;20480;-58
2022/03/08 06:06:55;;;;;;;12.07;10.57;;;-0.40;65.00;;;;;;5095725;28;20467;-58
2022/03/08 06:09:22;;;;;;;17.00;10.37;;;-0.50;63.00;;;;;;5095233;28;20479;-58
2022/03/08 06:11:49;;;;;;;10.67;9.53;;;-0.40;80.20;;;;;;5095635;28;20539;-58
2022/03/08 06:14:16;;;;;;;15.77;10.77;;;-0.90;83.90;;;;;;5095622;28;20526;-58
2022/03/08 06:16:43;;;;;;;13.67;11.07;;;-0.30;84.20;;;;;;5095640;28;20866;-58
2022/03/08 06:19:11;;;;;;;14.37;11.37;;;-0.30;76.40;;;;;;5095163;28;20866;-58
2022/03/08 06:21:38;;;;;;;16.23;10.67;;;-0.20;76.50;;;;;;5095325;28;20531;-58
2022/03/08 06:24:07;;;;;;;10.87;9.23;;;-0.20;77.00;;;;;;5095100;28;20492;-58
2022/03/08 06:26:34;;;;;;;12.93;9.50;;;-0.10;76.90;;;;;;5094966;28;20486;-58
2022/03/08 06:29:05;;;;;;;10.80;9.47;;;-0.20;76.80;;;;;;5095713;28;20491;-58
2022/03/08 06:31:32;;;;;;;14.13;11.00;;;-0.10;77.30;;;;;;5094771;28;20462;-58
2022/03/08 06:33:59;;;;;;;18.13;9.27;;;-0.10;77.00;;;;;;5094480;28;21008;-58
2022/03/08 06:36:26;;;;;;;12.70;9.50;;;-0.10;77.00;;;;;;5094715;28;20521;-58
2022/03/08 06:38:53;;;;;;;10.80;9.23;;;-0.10;76.90;;;;;;5094005;28;20483;-58
2022/03/08 06:41:22;;;;;;;13.47;8.70;;;0.00;76.90;;;;;;5094741;28;20979;-58
2022/03/08 06:43:49;;;;;;;13.57;9.57;;;0.00;76.80;;;;;;5094672;28;20483;-58
2022/03/08 06:46:16;;;;;;;12.20;9.80;;;0.20;76.20;;;;;;5094964;28;20514;-58
2022/03/08 06:48:44;;;;;;;12.27;9.00;;;0.20;76.80;;;;;;5094918;28;20448;-58
2022/03/08 06:51:11;;;;;;;12.03;9.10;;;0.30;78.00;;;;;;5094636;28;20834;-58
2022/03/08 06:53:38;;;;;;;11.77;8.53;;;0.40;73.50;;;;;;5094567;28;20462;-58
2022/03/08 06:56:05;;;;;;;8.57;7.77;;;0.40;69.80;;;;;;5094840;28;20650;-58
2022/03/08 06:58:34;;;;;;;11.73;9.43;;;0.50;59.50;;;;;;5094661;28;20534;-58
2022/03/08 07:01:01;;;;;;;9.50;8.17;;;0.50;59.20;;;;;;5094133;28;20439;-58
2022/03/08 07:03:28;;;;;;;10.13;8.57;;;0.50;59.00;;;;;;5094241;28;20420;-58
2022/03/08 07:05:55;;;;;;;10.63;8.37;;;0.60;59.30;;;;;;5094465;28;20527;-58
2022/03/08 07:08:23;;;;;;;11.37;8.57;;;0.70;59.20;;;;;;5094084;28;20443;-58
2022/03/08 07:10:51;;;;;;;14.63;10.20;;;;;;;;;;5094203;28;21011;-58
2022/03/08 07:13:18;;;;;;;10.70;9.03;;;0.90;58.90;;;;;;5094300;28;20478;-58
2022/03/08 07:15:46;;;;;;;10.37;8.43;;;0.90;58.20;;;;;;5094149;28;20450;-58
2022/03/08 07:18:14;;;;;;;10.57;8.37;;;0.90;58.10;;;;;;5094277;28;20554;-58
2022/03/08 07:20:41;;;;;;;12.13;9.17;;;1.00;58.20;;;;;;5094165;28;20475;-58
2022/03/08 07:23:08;;;;;;;9.27;8.20;;;1.00;57.60;;;;;;5094026;28;20451;-58
2022/03/08 07:25:35;;;;;;;12.03;9.07;;;1.10;57.90;;;;;;5094132;28;20521;-58
2022/03/08 07:28:02;;;;;;;12.60;9.20;;;1.20;57.50;;;;;;5093690;28;20475;-58
2022/03/08 07:30:29;;;;;;;12.23;9.00;;;1.20;57.40;;;;;;5093735;28;20517;-58
2022/03/08 07:32:58;;;;;;;9.73;8.73;;;1.40;58.30;;;;;;5093665;28;20960;-58
2022/03/08 07:35:25;;;;;;;14.20;8.87;;;1.50;57.70;;;;;;5094006;28;20971;-58
2022/03/08 07:37:53;;;;;;;10.17;9.10;;;1.60;57.80;;;;;;5093485;28;20509;-59
2022/03/08 07:40:20;;;;;;;9.20;8.13;;;1.70;58.60;;;;;;5094393;28;20443;-58
2022/03/08 07:42:47;;;;;;;10.70;8.10;;;1.80;57.50;;;;;;5093852;28;20443;-58
2022/03/08 07:45:14;;;;;;;13.27;9.63;;;1.80;58.30;;;;;;5093425;28;20930;-58
2022/03/08 07:47:41;;;;;;;12.27;8.80;;;1.90;57.70;;;;;;5093700;28;20558;-58
2022/03/08 07:50:11;;;;;;;10.10;8.50;;;2.00;58.20;;;;;;5093194;28;20532;-58
2022/03/08 07:52:39;;;;;;;13.00;9.10;;;2.00;57.90;;;;;;5093970;28;20451;-58
2022/03/08 07:55:08;;;;;;;10.97;8.70;;;2.10;58.00;;;;;;5093468;28;20455;-58
2022/03/08 07:57:36;;;;;;;9.90;8.53;;;2.10;58.00;;;;;;5093905;28;20772;-58
2022/03/08 08:00:04;;;;;;;9.70;8.67;;;2.20;57.50;;;;;;5093842;28;20796;-58
2022/03/08 08:02:31;;;;;;;15.47;9.10;;;2.30;57.20;;;;;;5093222;28;20447;-58
2022/03/08 08:04:58;;;;;;;20.00;8.50;;;2.40;57.50;;;;;;5093028;28;20449;-58
2022/03/08 08:07:27;;;;;;;10.77;9.27;;;2.30;57.60;;;;;;5093446;28;20471;-58
2022/03/08 08:09:54;;;;;;;10.20;9.17;;;2.30;57.80;;;;;;5093638;28;20475;-58
2022/03/08 08:12:21;;;;;;;10.17;9.13;;;2.40;57.70;;;;;;5093421;28;20447;-57
2022/03/08 08:14:48;;;;;;;12.80;9.53;;;2.50;57.90;;;;;;5093407;28;20526;-58
2022/03/08 08:17:17;;;;;;;10.80;9.53;;;2.60;57.50;;;;;;5093391;28;20551;-58
2022/03/08 08:19:45;;;;;;;11.50;9.17;;;2.70;57.90;;;;;;5093456;28;20443;-58
2022/03/08 08:22:12;;;;;;;10.83;9.30;;;2.80;57.40;;;;;;5093255;28;20502;-58
2022/03/08 08:24:41;;;;;;;9.80;8.10;;;2.80;57.40;;;;;;5093179;28;20960;-58
2022/03/08 08:27:08;;;;;;;12.20;9.83;;;2.90;57.90;;;;;;5093645;28;20491;-58
2022/03/08 08:29:40;;;;;;;10.80;9.70;;;2.80;57.20;;;;;;5092949;28;20571;-58
2022/03/08 08:32:08;;;;;;;14.37;9.53;;;2.90;57.80;;;;;;5093323;28;20949;-58
2022/03/08 08:34:35;;;;;;;17.90;9.60;;;3.00;57.80;;;;;;5093039;28;20985;-58
2022/03/08 08:37:02;;;;;;;13.67;9.10;;;3.20;57.90;;;;;;5093012;28;20965;-58
2022/03/08 08:39:29;;;;;;;14.60;11.07;;;3.20;57.50;;;;;;5092922;28;20479;-58
2022/03/08 08:41:58;;;;;;;10.77;8.77;;;3.40;57.30;;;;;;5093257;28;20483;-58
2022/03/08 08:44:26;;;;;;;15.00;9.57;;;3.40;57.00;;;;;;5093379;28;20447;-58
2022/03/08 08:46:53;;;;;;;12.20;10.13;;;3.50;57.30;;;;;;5093242;28;21007;-58
2022/03/08 08:49:21;;;;;;;22.43;9.27;;;3.70;57.10;;;;;;5093005;28;20930;-58
2022/03/08 08:51:48;;;;;;;10.40;8.00;;;3.70;56.70;;;;;;5093082;28;20483;-58
2022/03/08 08:54:16;;;;;;;8.07;7.37;;;3.80;56.70;;;;;;5092910;28;20489;-58
2022/03/08 08:56:43;;;;;;;8.00;6.73;;;3.90;56.80;;;;;;5092692;28;20470;-58
2022/03/08 08:59:12;;;;;;;14.40;8.67;;;4.00;56.70;;;;;;5092882;28;20854;-58
2022/03/08 09:01:39;;;;;;;11.40;8.00;;;4.10;56.50;;;;;;5093471;28;20445;-58
2022/03/08 09:04:06;;;;;;;11.47;8.23;;;4.20;56.00;;;;;;5097205;28;20473;-58
2022/03/08 09:06:34;;;;;;;13.20;8.23;;;4.10;56.00;;;;;;5096798;28;20474;-58
2022/03/08 09:09:01;;;;;;;8.43;7.60;;;4.30;56.60;;;;;;5096428;28;20473;-58
2022/03/08 09:11:28;;;;;;;11.80;8.30;;;4.40;56.10;;;;;;5096636;28;20479;-58
2022/03/08 09:13:56;;;;;;;8.53;7.27;;;4.30;55.90;;;;;;5096283;28;20439;-58
2022/03/08 09:16:25;;;;;;;7.93;7.20;;;4.40;55.80;;;;;;5096498;28;20474;-58
2022/03/08 09:18:52;;;;;;;8.53;7.17;;;4.50;55.40;;;;;;5096157;28;20933;-58
2022/03/08 09:21:19;;;;;;;11.20;8.57;;;4.60;55.10;;;;;;5096365;28;20435;-58
2022/03/08 09:23:46;;;;;;;10.50;8.00;;;4.70;55.10;;;;;;5096419;28;20447;-58
2022/03/08 09:26:14;;;;;;;8.50;7.50;;;4.70;54.60;;;;;;5095969;28;20511;-58
2022/03/08 09:28:41;;;;;;;10.20;7.07;;;4.80;54.70;;;;;;5095986;28;20567;-58
2022/03/08 09:31:08;;;;;;;15.30;7.47;;;;;;;;;;5095980;28;20498;-58
2022/03/08 09:33:37;;;;;;;10.20;7.77;;;5.00;54.50;;;;;;5095897;28;20439;-58
2022/03/08 09:36:05;;;;;;;7.60;6.67;;;5.00;54.90;;;;;;5095870;28;20529;-58
2022/03/08 09:38:32;;;;;;;13.20;7.20;;;5.10;54.60;;;;;;5095791;28;20967;-58
2022/03/08 09:41:01;;;;;;;10.10;6.50;;;5.20;54.40;;;;;;5095793;28;20435;-58
2022/03/08 09:43:29;;;;;;;11.27;7.80;;;5.00;53.60;;;;;;5095783;28;20463;-58
2022/03/08 09:45:56;;;;;;;8.30;6.23;;;5.20;53.50;;;;;;5095621;28;20486;-58
2022/03/08 09:48:24;;;;;;;11.83;7.73;;;5.10;53.40;;;;;;5095572;28;20505;-58
2022/03/08 09:50:53;;;;;;;6.73;6.10;;;5.40;53.50;;;;;;5095744;28;20529;-58
2022/03/08 09:53:21;;;;;;;7.30;6.27;;;5.40;52.90;;;;;;5095403;28;20500;-58
2022/03/08 09:55:48;;;;;;;7.70;6.90;;;5.50;53.10;;;;;;5095092;28;20962;-58
2022/03/08 09:58:19;;;;;;;10.73;7.17;;;5.50;52.90;;;;;;5095480;28;20474;-58
2022/03/08 10:00:46;;;;;;;10.67;7.17;;;5.60;53.20;;;;;;5095311;28;20891;-58
2022/03/08 10:03:13;;;;;;;7.20;6.60;;;5.80;52.80;;;;;;5095335;28;20451;-58
2022/03/08 10:05:41;;;;;;;10.03;7.10;;;6.30;52.50;;;;;;5095720;28;20808;-58
2022/03/08 10:08:13;;;;;;;8.10;6.53;;;7.30;51.30;;;;;;5095293;28;20470;-58
2022/03/08 10:10:58;;;;;;;7.80;7.10;;;8.10;51.20;;;;;;5095432;28;20467;-58
2022/03/08 10:13:29;;;;;;;9.83;7.67;;;8.90;49.50;;;;;;5094486;28;20443;-58
2022/03/08 10:16:12;;;;;;;7.30;6.50;;;9.00;48.10;;;;;;5095566;28;20424;-59
2022/03/08 10:18:42;;;;;;;8.83;7.00;;;9.60;47.60;;;;;;5095217;28;20979;-59
2022/03/08 10:21:30;;;;;;;7.93;6.80;;;10.00;46.40;;;;;;5095162;28;20443;-58
2022/03/08 10:24:00;;;;;;;7.97;7.13;;;10.10;45.50;;;;;;5095033;28;20443;-58
2022/03/08 10:26:27;;;;;;;7.97;6.87;;;10.20;45.50;;;;;;5094756;28;20862;-58
2022/03/08 10:28:56;;;;;;;7.53;6.83;;;10.70;45.80;;;;;;5094697;28;20479;-58
2022/03/08 10:31:24;;;;;;;7.20;6.40;;;10.90;45.90;;;;;;5094706;28;20497;-59
2022/03/08 10:33:51;;;;;;;8.37;6.67;;;11.90;45.40;;;;;;5094928;28;20542;-59
2022/03/08 10:36:21;;;;;;;8.60;7.70;;;12.30;44.90;;;;;;5094468;28;20467;-58
2022/03/08 10:39:11;;;;;;;9.40;7.67;;;11.90;43.60;;;;;;5095139;28;20446;-59
2022/03/08 10:41:50;;;;;;;8.47;7.50;;;11.20;43.00;;;;;;5094596;28;20474;-58
2022/03/08 10:44:19;;;;;;;9.10;7.07;;;11.40;43.80;;;;;;5094821;28;20453;-59
2022/03/08 10:47:00;;;;;;;6.73;6.13;;;11.70;42.40;;;;;;5095031;28;20467;-58
2022/03/08 10:49:27;;;;;;;8.30;6.43;;;11.20;42.60;;;;;;5095063;28;20432;-59
2022/03/08 10:52:00;;;;;;;8.60;6.77;;;12.20;43.00;;;;;;5094323;28;20973;-59
2022/03/08 10:54:29;;;;;;;11.57;7.80;;;12.60;42.00;;;;;;5095105;28;20459;-58
2022/03/08 10:56:57;;;;;;;6.93;6.27;;;12.90;41.70;;;;;;5094692;28;20546;-58
2022/03/08 10:59:24;;;;;;;8.43;6.47;;;12.80;41.50;;;;;;5095425;28;20479;-58
2022/03/08 11:01:52;;;;;;;7.73;6.50;;;12.70;41.20;;;;;;5094639;28;20868;-58
2022/03/08 11:04:21;;;;;;;11.90;7.00;;;13.10;41.80;;;;;;5095261;28;20497;-59
2022/03/08 11:06:52;;;;;;;6.60;6.00;;;12.20;40.30;;;;;;5095276;28;20467;-58
2022/03/08 11:09:20;;;;;;;8.60;7.40;;;13.10;41.60;;;;;;5094106;28;20926;-59
2022/03/08 11:11:49;;;;;;;7.33;6.40;;;12.90;40.10;;;;;;5094738;28;20988;-59
2022/03/08 11:14:17;;;;;;;9.37;7.10;;;12.30;39.90;;;;;;5094394;28;20450;-59
2022/03/08 11:16:50;;;;;;;8.43;7.47;;;13.00;40.50;;;;;;5094259;28;20554;-59
2022/03/08 11:19:19;;;;;;;6.17;5.63;;;13.70;40.10;;;;;;5094082;28;20439;-59
2022/03/08 11:21:48;;;;;;;12.83;6.97;;;13.90;39.90;;;;;;5095096;28;20440;-58
2022/03/08 11:24:16;;;;;;;6.07;5.40;;;13.30;38.20;;;;;;5093552;28;20448;-59
2022/03/08 11:26:44;;;;;;;7.20;5.90;;;13.80;39.20;;;;;;5093885;28;20801;-58
2022/03/08 11:29:14;;;;;;;7.10;6.40;;;14.00;39.10;;;;;;5093750;28;20471;-59
2022/03/08 11:31:43;;;;;;;5.70;5.20;;;13.30;38.30;;;;;;5093821;28;20479;-59
2022/03/08 11:34:19;;;;;;;5.97;5.37;;;13.80;40.00;;;;;;5094063;28;20534;-59
2022/03/08 11:36:56;;;;;;;9.00;6.30;;;13.40;37.50;;;;;;5093695;28;20470;-58
2022/03/08 11:39:25;;;;;;;9.43;6.20;;;13.60;39.00;;;;;;5093701;28;20424;-58
2022/03/08 11:41:54;;;;;;;7.73;5.40;;;12.50;37.60;;;;;;5093631;28;20918;-58
2022/03/08 11:44:28;;;;;;;8.50;6.20;;;13.40;38.10;;;;;;5093818;28;20858;-57
2022/03/08 11:47:04;;;;;;;8.33;6.20;;;13.20;37.20;;;;;;5093771;28;20562;-58
2022/03/08 11:49:40;;;;;;;6.67;6.07;;;13.80;36.90;;;;;;5093924;28;20428;-58
2022/03/08 11:52:19;;;;;;;5.30;4.80;;;13.60;36.40;;;;;;5093786;28;20550;-57
2022/03/08 11:54:57;;;;;;;5.83;5.23;;;12.90;36.60;;;;;;5093392;28;20470;-57
2022/03/08 11:57:54;;;;;;;7.07;6.37;;;12.30;36.60;;;;;;5093381;28;20463;-57
2022/03/08 12:00:34;;;;;;;5.90;5.40;;;11.90;36.70;;;;;;5093495;28;20447;-57
2022/03/08 12:03:03;;;;;;;6.87;6.27;;;12.20;37.10;;;;;;5093519;28;20451;-58
2022/03/08 12:06:00;;;;;;;6.70;6.13;;;12.70;36.80;;;;;;5093234;28;20451;-58
2022/03/08 12:08:59;;;;;;;7.50;5.87;;;13.30;37.40;;;;;;5093304;28;20471;-58
2022/03/08 12:11:38;;;;;;;5.90;5.30;;;13.30;37.50;;;;;;5093658;28;20506;-57
2022/03/08 12:14:12;;;;;;;7.30;6.00;;;13.50;37.90;;;;;;5093370;28;20451;-58
2022/03/08 12:16:42;;;;;;;6.97;6.27;;;14.60;38.20;;;;;;5093779;28;20546;-59
2022/03/08 12:19:11;;;;;;;9.93;7.63;;;14.60;37.20;;;;;;5093146;28;20424;-57
2022/03/08 12:21:41;;;;;;;10.20;7.27;;;14.70;38.00;;;;;;5093223;28;20471;-57
2022/03/08 12:24:14;;;;;;;9.20;6.80;;;14.10;36.80;;;;;;5093207;28;20530;-58
2022/03/08 12:26:43;;;;;;;7.57;6.67;;;14.20;37.60;;;;;;5093385;28;20474;-58
2022/03/08 12:29:16;;;;;;;7.33;5.70;;;13.90;36.20;;;;;;5093143;28;20507;-58
2022/03/08 12:32:20;;;;;;;7.67;6.77;;;13.50;36.20;;;;;;5092940;28;20489;-58
2022/03/08 12:34:52;;;;;;;7.00;6.40;;;13.10;36.90;;;;;;5093089;28;20542;-58
2022/03/08 12:37:21;;;;;;;7.00;6.30;;;14.30;37.40;;;;;;5094990;28;20554;-57
2022/03/08 12:39:49;;;;;;;7.10;6.40;;;;;;;;;;5096752;28;20453;-58
2022/03/08 12:42:21;;;;;;;7.57;6.80;;;13.90;38.10;;;;;;5096488;28;20454;-59
2022/03/08 12:44:58;;;;;;;8.47;7.60;;;13.10;36.40;;;;;;5096726;28;20457;-57
2022/03/08 12:47:27;;;;;;;8.20;7.40;;;14.00;37.80;;;;;;5096615;28;20463;-57
2022/03/08 12:49:56;;;;;;;8.10;7.30;;;14.10;37.70;;;;;;5096993;28;20443;-58